<?xml version="1.0" encoding="UTF-8" standalone="no" ?>
<gpx xmlns="http://www.topografix.com/GPX/1/1" xmlns:xsi="http://www.w3.org/2001/XMLSchema-instance" xsi:schemaLocation="http://www.topografix.com/GPX/1/1 http://www.topografix.com/GPX/1/1/gpx.xsd" version="1.1" creator="VisuGPX - https://www.visugpx.com">
  <metadata>
    <name>Le village de Montsoreau et son château entre Loire et habitats troglodytes</name>
    <desc><![CDATA[50min de Tours]]></desc>
  </metadata>
  <wpt lat="47.21723" lon="0.05542">
    <ele>33</ele>
    <name><![CDATA[Parking devant l’Office de Tourisme]]></name>
  </wpt>
  <wpt lat="47.22567" lon="0.04008">
    <ele>29</ele>
    <name><![CDATA[Chemin à gauche]]></name>
  </wpt>
  <wpt lat="47.22535" lon="0.0233">
    <ele>39</ele>
    <name><![CDATA[Rue des Ducs d'Anjou]]></name>
  </wpt>
  <wpt lat="47.22346" lon="0.02219">
    <ele>62</ele>
    <name><![CDATA[Traversée de la Rue de la Matinière]]></name>
  </wpt>
  <wpt lat="47.22036" lon="0.01719">
    <ele>77</ele>
    <name><![CDATA[Chemin à droite]]></name>
  </wpt>
  <wpt lat="47.21788" lon="0.01442">
    <ele>77</ele>
    <name><![CDATA[Route des Vins]]></name>
  </wpt>
  <wpt lat="47.20541" lon="0.0048">
    <ele>102</ele>
    <name><![CDATA[Carrefour de la Pierre Percée]]></name>
  </wpt>
  <wpt lat="47.19932" lon="0.01672">
    <ele>103</ele>
    <name><![CDATA[Chemin à gauche]]></name>
  </wpt>
  <wpt lat="47.20305" lon="0.01988">
    <ele>92</ele>
    <name><![CDATA[Carrefour de la Plaine des Joncs]]></name>
  </wpt>
  <wpt lat="47.20841" lon="0.03709">
    <ele>79</ele>
    <name><![CDATA[Moulin de la Herpinière]]></name>
  </wpt>
  <wpt lat="47.21623" lon="0.04774">
    <ele>70</ele>
    <name><![CDATA[Chemin à droite avant la Perruche]]></name>
  </wpt>
  <wpt lat="47.21632" lon="0.05424">
    <ele>34</ele>
    <name><![CDATA[Cimetière]]></name>
  </wpt>
  <wpt lat="47.21614" lon="0.05745">
    <ele>38</ele>
    <name><![CDATA[Rue André Obey]]></name>
  </wpt>
  <wpt lat="47.21328" lon="0.05587">
    <ele>60</ele>
    <name><![CDATA[Rue du Moulin de la Tranchée]]></name>
  </wpt>
  <wpt lat="47.21428" lon="0.06463">
    <ele>51</ele>
    <name><![CDATA[Rue de la Bonnardière]]></name>
  </wpt>
  <wpt lat="47.21721" lon="0.0555">
    <ele>33</ele>
    <name><![CDATA[Parking devant l’Office de Tourisme]]></name>
  </wpt>
  <trk>
    <name><![CDATA[Le village de Montsoreau et son château entre Loire et habitats troglodytes]]></name>
    <trkseg>
      <trkpt lat="47.21723" lon="0.05542">
        <ele>33</ele>
        <time>2021-02-20T11:36:27+01:00</time>
      </trkpt>
      <trkpt lat="47.21734" lon="0.05553">
        <ele>33</ele>
        <time>2021-02-20T11:36:32+01:00</time>
      </trkpt>
      <trkpt lat="47.21746" lon="0.05558">
        <ele>33</ele>
        <time>2021-02-20T11:36:37+01:00</time>
      </trkpt>
      <trkpt lat="47.21754" lon="0.05563">
        <ele>33</ele>
        <time>2021-02-20T11:36:42+01:00</time>
      </trkpt>
      <trkpt lat="47.21751" lon="0.05578">
        <ele>33</ele>
        <time>2021-02-20T11:36:47+01:00</time>
      </trkpt>
      <trkpt lat="47.21754" lon="0.05588">
        <ele>32</ele>
        <time>2021-02-20T11:36:52+01:00</time>
      </trkpt>
      <trkpt lat="47.21762" lon="0.0558">
        <ele>32</ele>
        <time>2021-02-20T11:36:57+01:00</time>
      </trkpt>
      <trkpt lat="47.21772" lon="0.05567">
        <ele>31</ele>
        <time>2021-02-20T11:37:02+01:00</time>
      </trkpt>
      <trkpt lat="47.21779" lon="0.05553">
        <ele>31</ele>
        <time>2021-02-20T11:37:07+01:00</time>
      </trkpt>
      <trkpt lat="47.21785" lon="0.05545">
        <ele>30</ele>
        <time>2021-02-20T11:37:12+01:00</time>
      </trkpt>
      <trkpt lat="47.21793" lon="0.05529">
        <ele>30</ele>
        <time>2021-02-20T11:37:17+01:00</time>
      </trkpt>
      <trkpt lat="47.21804" lon="0.05507">
        <ele>29</ele>
        <time>2021-02-20T11:37:22+01:00</time>
      </trkpt>
      <trkpt lat="47.21813" lon="0.05484">
        <ele>29</ele>
        <time>2021-02-20T11:37:27+01:00</time>
      </trkpt>
      <trkpt lat="47.21819" lon="0.05462">
        <ele>31</ele>
        <time>2021-02-20T11:37:32+01:00</time>
      </trkpt>
      <trkpt lat="47.21827" lon="0.05442">
        <ele>32</ele>
        <time>2021-02-20T11:37:37+01:00</time>
      </trkpt>
      <trkpt lat="47.21836" lon="0.05416">
        <ele>34</ele>
        <time>2021-02-20T11:37:42+01:00</time>
      </trkpt>
      <trkpt lat="47.21844" lon="0.05394">
        <ele>33</ele>
        <time>2021-02-20T11:37:47+01:00</time>
      </trkpt>
      <trkpt lat="47.2186" lon="0.05354">
        <ele>32</ele>
        <time>2021-02-20T11:37:52+01:00</time>
      </trkpt>
      <trkpt lat="47.21879" lon="0.05314">
        <ele>31</ele>
        <time>2021-02-20T11:37:57+01:00</time>
      </trkpt>
      <trkpt lat="47.21902" lon="0.05257">
        <ele>32</ele>
        <time>2021-02-20T11:38:02+01:00</time>
      </trkpt>
      <trkpt lat="47.21931" lon="0.05182">
        <ele>30</ele>
        <time>2021-02-20T11:38:07+01:00</time>
      </trkpt>
      <trkpt lat="47.21939" lon="0.05156">
        <ele>30</ele>
        <time>2021-02-20T11:38:12+01:00</time>
      </trkpt>
      <trkpt lat="47.21943" lon="0.05139">
        <ele>30</ele>
        <time>2021-02-20T11:38:17+01:00</time>
      </trkpt>
      <trkpt lat="47.21953" lon="0.0511">
        <ele>30</ele>
        <time>2021-02-20T11:38:22+01:00</time>
      </trkpt>
      <trkpt lat="47.21978" lon="0.05066">
        <ele>29</ele>
        <time>2021-02-20T11:38:27+01:00</time>
      </trkpt>
      <trkpt lat="47.22004" lon="0.05001">
        <ele>32</ele>
        <time>2021-02-20T11:38:32+01:00</time>
      </trkpt>
      <trkpt lat="47.22031" lon="0.04956">
        <ele>32</ele>
        <time>2021-02-20T11:38:37+01:00</time>
      </trkpt>
      <trkpt lat="47.22065" lon="0.04934">
        <ele>31</ele>
        <time>2021-02-20T11:38:42+01:00</time>
      </trkpt>
      <trkpt lat="47.22091" lon="0.04901">
        <ele>31</ele>
        <time>2021-02-20T11:38:47+01:00</time>
      </trkpt>
      <trkpt lat="47.22118" lon="0.04876">
        <ele>30</ele>
        <time>2021-02-20T11:38:52+01:00</time>
      </trkpt>
      <trkpt lat="47.22156" lon="0.0483">
        <ele>28</ele>
        <time>2021-02-20T11:38:57+01:00</time>
      </trkpt>
      <trkpt lat="47.22189" lon="0.04795">
        <ele>29</ele>
        <time>2021-02-20T11:39:02+01:00</time>
      </trkpt>
      <trkpt lat="47.22224" lon="0.04742">
        <ele>30</ele>
        <time>2021-02-20T11:39:07+01:00</time>
      </trkpt>
      <trkpt lat="47.22255" lon="0.04693">
        <ele>31</ele>
        <time>2021-02-20T11:39:12+01:00</time>
      </trkpt>
      <trkpt lat="47.22267" lon="0.04666">
        <ele>31</ele>
        <time>2021-02-20T11:39:17+01:00</time>
      </trkpt>
      <trkpt lat="47.22277" lon="0.04651">
        <ele>31</ele>
        <time>2021-02-20T11:39:22+01:00</time>
      </trkpt>
      <trkpt lat="47.22285" lon="0.04637">
        <ele>31</ele>
        <time>2021-02-20T11:39:27+01:00</time>
      </trkpt>
      <trkpt lat="47.22292" lon="0.04627">
        <ele>31</ele>
        <time>2021-02-20T11:39:32+01:00</time>
      </trkpt>
      <trkpt lat="47.2231" lon="0.04607">
        <ele>31</ele>
        <time>2021-02-20T11:39:37+01:00</time>
      </trkpt>
      <trkpt lat="47.22323" lon="0.04591">
        <ele>31</ele>
        <time>2021-02-20T11:39:42+01:00</time>
      </trkpt>
      <trkpt lat="47.22343" lon="0.04566">
        <ele>31</ele>
        <time>2021-02-20T11:39:47+01:00</time>
      </trkpt>
      <trkpt lat="47.2235" lon="0.04555">
        <ele>31</ele>
        <time>2021-02-20T11:39:52+01:00</time>
      </trkpt>
      <trkpt lat="47.22356" lon="0.04527">
        <ele>31</ele>
        <time>2021-02-20T11:39:57+01:00</time>
      </trkpt>
      <trkpt lat="47.22366" lon="0.04505">
        <ele>31</ele>
        <time>2021-02-20T11:40:02+01:00</time>
      </trkpt>
      <trkpt lat="47.22382" lon="0.04461">
        <ele>30</ele>
        <time>2021-02-20T11:40:07+01:00</time>
      </trkpt>
      <trkpt lat="47.22393" lon="0.04424">
        <ele>29</ele>
        <time>2021-02-20T11:40:12+01:00</time>
      </trkpt>
      <trkpt lat="47.22394" lon="0.04403">
        <ele>30</ele>
        <time>2021-02-20T11:40:17+01:00</time>
      </trkpt>
      <trkpt lat="47.22394" lon="0.04372">
        <ele>30</ele>
        <time>2021-02-20T11:40:22+01:00</time>
      </trkpt>
      <trkpt lat="47.22401" lon="0.04345">
        <ele>31</ele>
        <time>2021-02-20T11:40:27+01:00</time>
      </trkpt>
      <trkpt lat="47.22413" lon="0.04302">
        <ele>31</ele>
        <time>2021-02-20T11:40:32+01:00</time>
      </trkpt>
      <trkpt lat="47.22416" lon="0.04286">
        <ele>31</ele>
        <time>2021-02-20T11:40:37+01:00</time>
      </trkpt>
      <trkpt lat="47.22425" lon="0.04264">
        <ele>31</ele>
        <time>2021-02-20T11:40:42+01:00</time>
      </trkpt>
      <trkpt lat="47.22466" lon="0.04206">
        <ele>29</ele>
        <time>2021-02-20T11:40:47+01:00</time>
      </trkpt>
      <trkpt lat="47.22477" lon="0.04186">
        <ele>29</ele>
        <time>2021-02-20T11:40:52+01:00</time>
      </trkpt>
      <trkpt lat="47.22503" lon="0.04136">
        <ele>30</ele>
        <time>2021-02-20T11:40:57+01:00</time>
      </trkpt>
      <trkpt lat="47.22509" lon="0.04121">
        <ele>30</ele>
        <time>2021-02-20T11:41:02+01:00</time>
      </trkpt>
      <trkpt lat="47.22519" lon="0.04105">
        <ele>30</ele>
        <time>2021-02-20T11:41:07+01:00</time>
      </trkpt>
      <trkpt lat="47.22539" lon="0.04068">
        <ele>29</ele>
        <time>2021-02-20T11:41:12+01:00</time>
      </trkpt>
      <trkpt lat="47.22555" lon="0.04045">
        <ele>29</ele>
        <time>2021-02-20T11:41:17+01:00</time>
      </trkpt>
      <trkpt lat="47.22559" lon="0.04031">
        <ele>29</ele>
        <time>2021-02-20T11:41:22+01:00</time>
      </trkpt>
      <trkpt lat="47.22567" lon="0.04008">
        <ele>29</ele>
        <time>2021-02-20T11:41:27+01:00</time>
      </trkpt>
      <trkpt lat="47.22609" lon="0.03891">
        <ele>28</ele>
        <time>2021-02-20T11:41:32+01:00</time>
      </trkpt>
      <trkpt lat="47.2267" lon="0.03625">
        <ele>31</ele>
        <time>2021-02-20T11:41:37+01:00</time>
      </trkpt>
      <trkpt lat="47.22727" lon="0.03456">
        <ele>29</ele>
        <time>2021-02-20T11:41:42+01:00</time>
      </trkpt>
      <trkpt lat="47.22833" lon="0.03246">
        <ele>32</ele>
        <time>2021-02-20T11:41:47+01:00</time>
      </trkpt>
      <trkpt lat="47.22896" lon="0.03205">
        <ele>28</ele>
        <time>2021-02-20T11:41:52+01:00</time>
      </trkpt>
      <trkpt lat="47.22926" lon="0.03128">
        <ele>29</ele>
        <time>2021-02-20T11:41:57+01:00</time>
      </trkpt>
      <trkpt lat="47.22833" lon="0.03059">
        <ele>33</ele>
        <time>2021-02-20T11:42:02+01:00</time>
      </trkpt>
      <trkpt lat="47.2267" lon="0.0302">
        <ele>31</ele>
        <time>2021-02-20T11:42:07+01:00</time>
      </trkpt>
      <trkpt lat="47.22583" lon="0.03">
        <ele>29</ele>
        <time>2021-02-20T11:42:12+01:00</time>
      </trkpt>
      <trkpt lat="47.22544" lon="0.0298">
        <ele>30</ele>
        <time>2021-02-20T11:42:17+01:00</time>
      </trkpt>
      <trkpt lat="47.22555" lon="0.02947">
        <ele>30</ele>
        <time>2021-02-20T11:42:22+01:00</time>
      </trkpt>
      <trkpt lat="47.22533" lon="0.02928">
        <ele>30</ele>
        <time>2021-02-20T11:42:27+01:00</time>
      </trkpt>
      <trkpt lat="47.22527" lon="0.02895">
        <ele>30</ele>
        <time>2021-02-20T11:42:32+01:00</time>
      </trkpt>
      <trkpt lat="47.22515" lon="0.02916">
        <ele>30</ele>
        <time>2021-02-20T11:42:37+01:00</time>
      </trkpt>
      <trkpt lat="47.22498" lon="0.02936">
        <ele>30</ele>
        <time>2021-02-20T11:42:42+01:00</time>
      </trkpt>
      <trkpt lat="47.22486" lon="0.02944">
        <ele>31</ele>
        <time>2021-02-20T11:42:47+01:00</time>
      </trkpt>
      <trkpt lat="47.22417" lon="0.02921">
        <ele>32</ele>
        <time>2021-02-20T11:42:52+01:00</time>
      </trkpt>
      <trkpt lat="47.2239" lon="0.02908">
        <ele>33</ele>
        <time>2021-02-20T11:42:57+01:00</time>
      </trkpt>
      <trkpt lat="47.22381" lon="0.02915">
        <ele>33</ele>
        <time>2021-02-20T11:43:02+01:00</time>
      </trkpt>
      <trkpt lat="47.22305" lon="0.0288">
        <ele>36</ele>
        <time>2021-02-20T11:43:07+01:00</time>
      </trkpt>
      <trkpt lat="47.22308" lon="0.02857">
        <ele>37</ele>
        <time>2021-02-20T11:43:12+01:00</time>
      </trkpt>
      <trkpt lat="47.22314" lon="0.02827">
        <ele>38</ele>
        <time>2021-02-20T11:43:17+01:00</time>
      </trkpt>
      <trkpt lat="47.2232" lon="0.02806">
        <ele>40</ele>
        <time>2021-02-20T11:43:22+01:00</time>
      </trkpt>
      <trkpt lat="47.22343" lon="0.02804">
        <ele>40</ele>
        <time>2021-02-20T11:43:27+01:00</time>
      </trkpt>
      <trkpt lat="47.22353" lon="0.02786">
        <ele>41</ele>
        <time>2021-02-20T11:43:32+01:00</time>
      </trkpt>
      <trkpt lat="47.2237" lon="0.02777">
        <ele>41</ele>
        <time>2021-02-20T11:43:37+01:00</time>
      </trkpt>
      <trkpt lat="47.22384" lon="0.02767">
        <ele>40</ele>
        <time>2021-02-20T11:43:42+01:00</time>
      </trkpt>
      <trkpt lat="47.224" lon="0.02748">
        <ele>39</ele>
        <time>2021-02-20T11:43:47+01:00</time>
      </trkpt>
      <trkpt lat="47.22417" lon="0.02702">
        <ele>42</ele>
        <time>2021-02-20T11:43:52+01:00</time>
      </trkpt>
      <trkpt lat="47.22427" lon="0.02669">
        <ele>43</ele>
        <time>2021-02-20T11:43:57+01:00</time>
      </trkpt>
      <trkpt lat="47.22436" lon="0.02605">
        <ele>46</ele>
        <time>2021-02-20T11:44:02+01:00</time>
      </trkpt>
      <trkpt lat="47.22462" lon="0.02532">
        <ele>45</ele>
        <time>2021-02-20T11:44:07+01:00</time>
      </trkpt>
      <trkpt lat="47.22491" lon="0.02458">
        <ele>42</ele>
        <time>2021-02-20T11:44:12+01:00</time>
      </trkpt>
      <trkpt lat="47.22512" lon="0.02386">
        <ele>42</ele>
        <time>2021-02-20T11:44:17+01:00</time>
      </trkpt>
      <trkpt lat="47.22515" lon="0.02383">
        <ele>42</ele>
        <time>2021-02-20T11:44:22+01:00</time>
      </trkpt>
      <trkpt lat="47.22524" lon="0.0235">
        <ele>41</ele>
        <time>2021-02-20T11:44:27+01:00</time>
      </trkpt>
      <trkpt lat="47.22535" lon="0.0233">
        <ele>39</ele>
        <time>2021-02-20T11:44:32+01:00</time>
      </trkpt>
      <trkpt lat="47.22546" lon="0.023">
        <ele>40</ele>
        <time>2021-02-20T11:44:37+01:00</time>
      </trkpt>
      <trkpt lat="47.22571" lon="0.02245">
        <ele>39</ele>
        <time>2021-02-20T11:44:42+01:00</time>
      </trkpt>
      <trkpt lat="47.22573" lon="0.02239">
        <ele>39</ele>
        <time>2021-02-20T11:44:47+01:00</time>
      </trkpt>
      <trkpt lat="47.22573" lon="0.0222">
        <ele>42</ele>
        <time>2021-02-20T11:44:52+01:00</time>
      </trkpt>
      <trkpt lat="47.22577" lon="0.02202">
        <ele>43</ele>
        <time>2021-02-20T11:44:57+01:00</time>
      </trkpt>
      <trkpt lat="47.22581" lon="0.02183">
        <ele>44</ele>
        <time>2021-02-20T11:45:02+01:00</time>
      </trkpt>
      <trkpt lat="47.22578" lon="0.02183">
        <ele>45</ele>
        <time>2021-02-20T11:45:07+01:00</time>
      </trkpt>
      <trkpt lat="47.22572" lon="0.02179">
        <ele>46</ele>
        <time>2021-02-20T11:45:12+01:00</time>
      </trkpt>
      <trkpt lat="47.22561" lon="0.02188">
        <ele>47</ele>
        <time>2021-02-20T11:45:17+01:00</time>
      </trkpt>
      <trkpt lat="47.2256" lon="0.02196">
        <ele>47</ele>
        <time>2021-02-20T11:45:22+01:00</time>
      </trkpt>
      <trkpt lat="47.22549" lon="0.02214">
        <ele>47</ele>
        <time>2021-02-20T11:45:27+01:00</time>
      </trkpt>
      <trkpt lat="47.22542" lon="0.02218">
        <ele>48</ele>
        <time>2021-02-20T11:45:32+01:00</time>
      </trkpt>
      <trkpt lat="47.22531" lon="0.02221">
        <ele>49</ele>
        <time>2021-02-20T11:45:37+01:00</time>
      </trkpt>
      <trkpt lat="47.22515" lon="0.0222">
        <ele>52</ele>
        <time>2021-02-20T11:45:42+01:00</time>
      </trkpt>
      <trkpt lat="47.22497" lon="0.02219">
        <ele>56</ele>
        <time>2021-02-20T11:45:47+01:00</time>
      </trkpt>
      <trkpt lat="47.2248" lon="0.02225">
        <ele>56</ele>
        <time>2021-02-20T11:45:52+01:00</time>
      </trkpt>
      <trkpt lat="47.22461" lon="0.0223">
        <ele>57</ele>
        <time>2021-02-20T11:45:57+01:00</time>
      </trkpt>
      <trkpt lat="47.2244" lon="0.02225">
        <ele>58</ele>
        <time>2021-02-20T11:46:02+01:00</time>
      </trkpt>
      <trkpt lat="47.22418" lon="0.02223">
        <ele>60</ele>
        <time>2021-02-20T11:46:07+01:00</time>
      </trkpt>
      <trkpt lat="47.22395" lon="0.02216">
        <ele>61</ele>
        <time>2021-02-20T11:46:12+01:00</time>
      </trkpt>
      <trkpt lat="47.22358" lon="0.0222">
        <ele>61</ele>
        <time>2021-02-20T11:46:17+01:00</time>
      </trkpt>
      <trkpt lat="47.22346" lon="0.02219">
        <ele>62</ele>
        <time>2021-02-20T11:46:22+01:00</time>
      </trkpt>
      <trkpt lat="47.22335" lon="0.02208">
        <ele>62</ele>
        <time>2021-02-20T11:46:27+01:00</time>
      </trkpt>
      <trkpt lat="47.22302" lon="0.02187">
        <ele>63</ele>
        <time>2021-02-20T11:46:32+01:00</time>
      </trkpt>
      <trkpt lat="47.22265" lon="0.02151">
        <ele>64</ele>
        <time>2021-02-20T11:46:37+01:00</time>
      </trkpt>
      <trkpt lat="47.22229" lon="0.02116">
        <ele>65</ele>
        <time>2021-02-20T11:46:42+01:00</time>
      </trkpt>
      <trkpt lat="47.22204" lon="0.02086">
        <ele>66</ele>
        <time>2021-02-20T11:46:47+01:00</time>
      </trkpt>
      <trkpt lat="47.22178" lon="0.02056">
        <ele>66</ele>
        <time>2021-02-20T11:46:52+01:00</time>
      </trkpt>
      <trkpt lat="47.22134" lon="0.02009">
        <ele>69</ele>
        <time>2021-02-20T11:46:57+01:00</time>
      </trkpt>
      <trkpt lat="47.22109" lon="0.0198">
        <ele>70</ele>
        <time>2021-02-20T11:47:02+01:00</time>
      </trkpt>
      <trkpt lat="47.22107" lon="0.01967">
        <ele>70</ele>
        <time>2021-02-20T11:47:07+01:00</time>
      </trkpt>
      <trkpt lat="47.22104" lon="0.01949">
        <ele>71</ele>
        <time>2021-02-20T11:47:12+01:00</time>
      </trkpt>
      <trkpt lat="47.2207" lon="0.01917">
        <ele>72</ele>
        <time>2021-02-20T11:47:17+01:00</time>
      </trkpt>
      <trkpt lat="47.22041" lon="0.01896">
        <ele>74</ele>
        <time>2021-02-20T11:47:22+01:00</time>
      </trkpt>
      <trkpt lat="47.22026" lon="0.01885">
        <ele>74</ele>
        <time>2021-02-20T11:47:27+01:00</time>
      </trkpt>
      <trkpt lat="47.22037" lon="0.01738">
        <ele>77</ele>
        <time>2021-02-20T11:47:32+01:00</time>
      </trkpt>
      <trkpt lat="47.22036" lon="0.01719">
        <ele>77</ele>
        <time>2021-02-20T11:47:37+01:00</time>
      </trkpt>
      <trkpt lat="47.22042" lon="0.01699">
        <ele>77</ele>
        <time>2021-02-20T11:47:42+01:00</time>
      </trkpt>
      <trkpt lat="47.22042" lon="0.0168">
        <ele>77</ele>
        <time>2021-02-20T11:47:47+01:00</time>
      </trkpt>
      <trkpt lat="47.22038" lon="0.01639">
        <ele>77</ele>
        <time>2021-02-20T11:47:52+01:00</time>
      </trkpt>
      <trkpt lat="47.22032" lon="0.01606">
        <ele>77</ele>
        <time>2021-02-20T11:47:57+01:00</time>
      </trkpt>
      <trkpt lat="47.2202" lon="0.01556">
        <ele>77</ele>
        <time>2021-02-20T11:48:02+01:00</time>
      </trkpt>
      <trkpt lat="47.2202" lon="0.01552">
        <ele>77</ele>
        <time>2021-02-20T11:48:07+01:00</time>
      </trkpt>
      <trkpt lat="47.22015" lon="0.01516">
        <ele>77</ele>
        <time>2021-02-20T11:48:12+01:00</time>
      </trkpt>
      <trkpt lat="47.22011" lon="0.01486">
        <ele>76</ele>
        <time>2021-02-20T11:48:17+01:00</time>
      </trkpt>
      <trkpt lat="47.21994" lon="0.01484">
        <ele>77</ele>
        <time>2021-02-20T11:48:22+01:00</time>
      </trkpt>
      <trkpt lat="47.21977" lon="0.01483">
        <ele>77</ele>
        <time>2021-02-20T11:48:27+01:00</time>
      </trkpt>
      <trkpt lat="47.21964" lon="0.01478">
        <ele>77</ele>
        <time>2021-02-20T11:48:32+01:00</time>
      </trkpt>
      <trkpt lat="47.21941" lon="0.01471">
        <ele>77</ele>
        <time>2021-02-20T11:48:37+01:00</time>
      </trkpt>
      <trkpt lat="47.2192" lon="0.01464">
        <ele>77</ele>
        <time>2021-02-20T11:48:42+01:00</time>
      </trkpt>
      <trkpt lat="47.21893" lon="0.01455">
        <ele>77</ele>
        <time>2021-02-20T11:48:47+01:00</time>
      </trkpt>
      <trkpt lat="47.21871" lon="0.01446">
        <ele>76</ele>
        <time>2021-02-20T11:48:52+01:00</time>
      </trkpt>
      <trkpt lat="47.21843" lon="0.01439">
        <ele>76</ele>
        <time>2021-02-20T11:48:57+01:00</time>
      </trkpt>
      <trkpt lat="47.21819" lon="0.01438">
        <ele>76</ele>
        <time>2021-02-20T11:49:02+01:00</time>
      </trkpt>
      <trkpt lat="47.21797" lon="0.01438">
        <ele>77</ele>
        <time>2021-02-20T11:49:07+01:00</time>
      </trkpt>
      <trkpt lat="47.21788" lon="0.01442">
        <ele>77</ele>
        <time>2021-02-20T11:49:12+01:00</time>
      </trkpt>
      <trkpt lat="47.21764" lon="0.01462">
        <ele>78</ele>
        <time>2021-02-20T11:49:17+01:00</time>
      </trkpt>
      <trkpt lat="47.21756" lon="0.01463">
        <ele>78</ele>
        <time>2021-02-20T11:49:22+01:00</time>
      </trkpt>
      <trkpt lat="47.21736" lon="0.01467">
        <ele>78</ele>
        <time>2021-02-20T11:49:27+01:00</time>
      </trkpt>
      <trkpt lat="47.21716" lon="0.01467">
        <ele>78</ele>
        <time>2021-02-20T11:49:32+01:00</time>
      </trkpt>
      <trkpt lat="47.21695" lon="0.01466">
        <ele>79</ele>
        <time>2021-02-20T11:49:37+01:00</time>
      </trkpt>
      <trkpt lat="47.21677" lon="0.01466">
        <ele>79</ele>
        <time>2021-02-20T11:49:42+01:00</time>
      </trkpt>
      <trkpt lat="47.21658" lon="0.01465">
        <ele>79</ele>
        <time>2021-02-20T11:49:47+01:00</time>
      </trkpt>
      <trkpt lat="47.21633" lon="0.01464">
        <ele>79</ele>
        <time>2021-02-20T11:49:52+01:00</time>
      </trkpt>
      <trkpt lat="47.21609" lon="0.01464">
        <ele>80</ele>
        <time>2021-02-20T11:49:57+01:00</time>
      </trkpt>
      <trkpt lat="47.2159" lon="0.01461">
        <ele>80</ele>
        <time>2021-02-20T11:50:02+01:00</time>
      </trkpt>
      <trkpt lat="47.21541" lon="0.0145">
        <ele>81</ele>
        <time>2021-02-20T11:50:07+01:00</time>
      </trkpt>
      <trkpt lat="47.21532" lon="0.01449">
        <ele>81</ele>
        <time>2021-02-20T11:50:12+01:00</time>
      </trkpt>
      <trkpt lat="47.21507" lon="0.01447">
        <ele>81</ele>
        <time>2021-02-20T11:50:17+01:00</time>
      </trkpt>
      <trkpt lat="47.21505" lon="0.01447">
        <ele>81</ele>
        <time>2021-02-20T11:50:22+01:00</time>
      </trkpt>
      <trkpt lat="47.2149" lon="0.01449">
        <ele>81</ele>
        <time>2021-02-20T11:50:27+01:00</time>
      </trkpt>
      <trkpt lat="47.21477" lon="0.01451">
        <ele>82</ele>
        <time>2021-02-20T11:50:32+01:00</time>
      </trkpt>
      <trkpt lat="47.2146" lon="0.01448">
        <ele>82</ele>
        <time>2021-02-20T11:50:37+01:00</time>
      </trkpt>
      <trkpt lat="47.21451" lon="0.01445">
        <ele>82</ele>
        <time>2021-02-20T11:50:42+01:00</time>
      </trkpt>
      <trkpt lat="47.21444" lon="0.01441">
        <ele>82</ele>
        <time>2021-02-20T11:50:47+01:00</time>
      </trkpt>
      <trkpt lat="47.21426" lon="0.01428">
        <ele>83</ele>
        <time>2021-02-20T11:50:52+01:00</time>
      </trkpt>
      <trkpt lat="47.21397" lon="0.01402">
        <ele>85</ele>
        <time>2021-02-20T11:50:57+01:00</time>
      </trkpt>
      <trkpt lat="47.2138" lon="0.01384">
        <ele>87</ele>
        <time>2021-02-20T11:51:02+01:00</time>
      </trkpt>
      <trkpt lat="47.21378" lon="0.01372">
        <ele>88</ele>
        <time>2021-02-20T11:51:07+01:00</time>
      </trkpt>
      <trkpt lat="47.21367" lon="0.0136">
        <ele>89</ele>
        <time>2021-02-20T11:51:12+01:00</time>
      </trkpt>
      <trkpt lat="47.21363" lon="0.0135">
        <ele>89</ele>
        <time>2021-02-20T11:51:17+01:00</time>
      </trkpt>
      <trkpt lat="47.21352" lon="0.01339">
        <ele>90</ele>
        <time>2021-02-20T11:51:22+01:00</time>
      </trkpt>
      <trkpt lat="47.21299" lon="0.01298">
        <ele>92</ele>
        <time>2021-02-20T11:51:27+01:00</time>
      </trkpt>
      <trkpt lat="47.21251" lon="0.01249">
        <ele>93</ele>
        <time>2021-02-20T11:51:32+01:00</time>
      </trkpt>
      <trkpt lat="47.21212" lon="0.0121">
        <ele>94</ele>
        <time>2021-02-20T11:51:37+01:00</time>
      </trkpt>
      <trkpt lat="47.21163" lon="0.01171">
        <ele>96</ele>
        <time>2021-02-20T11:51:42+01:00</time>
      </trkpt>
      <trkpt lat="47.21101" lon="0.01135">
        <ele>96</ele>
        <time>2021-02-20T11:51:47+01:00</time>
      </trkpt>
      <trkpt lat="47.21078" lon="0.01113">
        <ele>96</ele>
        <time>2021-02-20T11:51:52+01:00</time>
      </trkpt>
      <trkpt lat="47.21046" lon="0.01079">
        <ele>96</ele>
        <time>2021-02-20T11:51:57+01:00</time>
      </trkpt>
      <trkpt lat="47.21002" lon="0.01034">
        <ele>96</ele>
        <time>2021-02-20T11:52:02+01:00</time>
      </trkpt>
      <trkpt lat="47.20972" lon="0.01003">
        <ele>97</ele>
        <time>2021-02-20T11:52:07+01:00</time>
      </trkpt>
      <trkpt lat="47.20909" lon="0.00935">
        <ele>99</ele>
        <time>2021-02-20T11:52:12+01:00</time>
      </trkpt>
      <trkpt lat="47.20883" lon="0.00907">
        <ele>100</ele>
        <time>2021-02-20T11:52:17+01:00</time>
      </trkpt>
      <trkpt lat="47.20866" lon="0.0089">
        <ele>100</ele>
        <time>2021-02-20T11:52:22+01:00</time>
      </trkpt>
      <trkpt lat="47.2083" lon="0.00848">
        <ele>101</ele>
        <time>2021-02-20T11:52:27+01:00</time>
      </trkpt>
      <trkpt lat="47.20787" lon="0.00803">
        <ele>102</ele>
        <time>2021-02-20T11:52:32+01:00</time>
      </trkpt>
      <trkpt lat="47.2077" lon="0.0078">
        <ele>102</ele>
        <time>2021-02-20T11:52:37+01:00</time>
      </trkpt>
      <trkpt lat="47.20743" lon="0.00729">
        <ele>101</ele>
        <time>2021-02-20T11:52:42+01:00</time>
      </trkpt>
      <trkpt lat="47.20718" lon="0.00688">
        <ele>100</ele>
        <time>2021-02-20T11:52:47+01:00</time>
      </trkpt>
      <trkpt lat="47.20678" lon="0.00637">
        <ele>99</ele>
        <time>2021-02-20T11:52:52+01:00</time>
      </trkpt>
      <trkpt lat="47.20648" lon="0.00601">
        <ele>99</ele>
        <time>2021-02-20T11:52:57+01:00</time>
      </trkpt>
      <trkpt lat="47.20621" lon="0.00568">
        <ele>100</ele>
        <time>2021-02-20T11:53:02+01:00</time>
      </trkpt>
      <trkpt lat="47.20581" lon="0.00523">
        <ele>101</ele>
        <time>2021-02-20T11:53:07+01:00</time>
      </trkpt>
      <trkpt lat="47.20541" lon="0.0048">
        <ele>102</ele>
        <time>2021-02-20T11:53:12+01:00</time>
      </trkpt>
      <trkpt lat="47.20516" lon="0.00553">
        <ele>100</ele>
        <time>2021-02-20T11:53:17+01:00</time>
      </trkpt>
      <trkpt lat="47.20497" lon="0.00579">
        <ele>99</ele>
        <time>2021-02-20T11:53:22+01:00</time>
      </trkpt>
      <trkpt lat="47.20477" lon="0.00621">
        <ele>99</ele>
        <time>2021-02-20T11:53:27+01:00</time>
      </trkpt>
      <trkpt lat="47.20446" lon="0.00695">
        <ele>100</ele>
        <time>2021-02-20T11:53:32+01:00</time>
      </trkpt>
      <trkpt lat="47.20409" lon="0.00745">
        <ele>101</ele>
        <time>2021-02-20T11:53:37+01:00</time>
      </trkpt>
      <trkpt lat="47.20376" lon="0.00789">
        <ele>102</ele>
        <time>2021-02-20T11:53:42+01:00</time>
      </trkpt>
      <trkpt lat="47.20357" lon="0.00815">
        <ele>101</ele>
        <time>2021-02-20T11:53:47+01:00</time>
      </trkpt>
      <trkpt lat="47.20339" lon="0.00842">
        <ele>101</ele>
        <time>2021-02-20T11:53:52+01:00</time>
      </trkpt>
      <trkpt lat="47.20314" lon="0.0087">
        <ele>101</ele>
        <time>2021-02-20T11:53:57+01:00</time>
      </trkpt>
      <trkpt lat="47.20285" lon="0.0091">
        <ele>100</ele>
        <time>2021-02-20T11:54:02+01:00</time>
      </trkpt>
      <trkpt lat="47.20271" lon="0.00925">
        <ele>100</ele>
        <time>2021-02-20T11:54:07+01:00</time>
      </trkpt>
      <trkpt lat="47.20246" lon="0.0095">
        <ele>99</ele>
        <time>2021-02-20T11:54:12+01:00</time>
      </trkpt>
      <trkpt lat="47.20229" lon="0.00966">
        <ele>99</ele>
        <time>2021-02-20T11:54:17+01:00</time>
      </trkpt>
      <trkpt lat="47.20209" lon="0.00984">
        <ele>98</ele>
        <time>2021-02-20T11:54:22+01:00</time>
      </trkpt>
      <trkpt lat="47.20177" lon="0.01025">
        <ele>96</ele>
        <time>2021-02-20T11:54:27+01:00</time>
      </trkpt>
      <trkpt lat="47.20153" lon="0.01046">
        <ele>96</ele>
        <time>2021-02-20T11:54:32+01:00</time>
      </trkpt>
      <trkpt lat="47.20135" lon="0.01055">
        <ele>96</ele>
        <time>2021-02-20T11:54:37+01:00</time>
      </trkpt>
      <trkpt lat="47.20123" lon="0.01069">
        <ele>97</ele>
        <time>2021-02-20T11:54:42+01:00</time>
      </trkpt>
      <trkpt lat="47.20121" lon="0.01074">
        <ele>97</ele>
        <time>2021-02-20T11:54:47+01:00</time>
      </trkpt>
      <trkpt lat="47.20155" lon="0.01132">
        <ele>95</ele>
        <time>2021-02-20T11:54:52+01:00</time>
      </trkpt>
      <trkpt lat="47.20148" lon="0.0115">
        <ele>94</ele>
        <time>2021-02-20T11:54:57+01:00</time>
      </trkpt>
      <trkpt lat="47.20084" lon="0.01287">
        <ele>92</ele>
        <time>2021-02-20T11:55:02+01:00</time>
      </trkpt>
      <trkpt lat="47.19997" lon="0.01498">
        <ele>101</ele>
        <time>2021-02-20T11:55:07+01:00</time>
      </trkpt>
      <trkpt lat="47.19983" lon="0.01532">
        <ele>101</ele>
        <time>2021-02-20T11:55:12+01:00</time>
      </trkpt>
      <trkpt lat="47.19955" lon="0.01581">
        <ele>101</ele>
        <time>2021-02-20T11:55:17+01:00</time>
      </trkpt>
      <trkpt lat="47.19932" lon="0.01672">
        <ele>103</ele>
        <time>2021-02-20T11:55:22+01:00</time>
      </trkpt>
      <trkpt lat="47.19944" lon="0.01698">
        <ele>102</ele>
        <time>2021-02-20T11:55:27+01:00</time>
      </trkpt>
      <trkpt lat="47.19965" lon="0.01717">
        <ele>102</ele>
        <time>2021-02-20T11:55:32+01:00</time>
      </trkpt>
      <trkpt lat="47.19975" lon="0.01727">
        <ele>102</ele>
        <time>2021-02-20T11:55:37+01:00</time>
      </trkpt>
      <trkpt lat="47.20002" lon="0.01771">
        <ele>102</ele>
        <time>2021-02-20T11:55:42+01:00</time>
      </trkpt>
      <trkpt lat="47.20014" lon="0.01786">
        <ele>101</ele>
        <time>2021-02-20T11:55:47+01:00</time>
      </trkpt>
      <trkpt lat="47.20091" lon="0.01882">
        <ele>98</ele>
        <time>2021-02-20T11:55:52+01:00</time>
      </trkpt>
      <trkpt lat="47.20123" lon="0.01915">
        <ele>96</ele>
        <time>2021-02-20T11:55:57+01:00</time>
      </trkpt>
      <trkpt lat="47.20233" lon="0.01943">
        <ele>94</ele>
        <time>2021-02-20T11:56:02+01:00</time>
      </trkpt>
      <trkpt lat="47.20268" lon="0.01959">
        <ele>93</ele>
        <time>2021-02-20T11:56:07+01:00</time>
      </trkpt>
      <trkpt lat="47.20305" lon="0.01988">
        <ele>92</ele>
        <time>2021-02-20T11:56:12+01:00</time>
      </trkpt>
      <trkpt lat="47.20295" lon="0.02018">
        <ele>93</ele>
        <time>2021-02-20T11:56:17+01:00</time>
      </trkpt>
      <trkpt lat="47.20283" lon="0.0207">
        <ele>94</ele>
        <time>2021-02-20T11:56:22+01:00</time>
      </trkpt>
      <trkpt lat="47.20263" lon="0.02159">
        <ele>96</ele>
        <time>2021-02-20T11:56:27+01:00</time>
      </trkpt>
      <trkpt lat="47.20207" lon="0.02363">
        <ele>94</ele>
        <time>2021-02-20T11:56:32+01:00</time>
      </trkpt>
      <trkpt lat="47.20173" lon="0.02387">
        <ele>91</ele>
        <time>2021-02-20T11:56:37+01:00</time>
      </trkpt>
      <trkpt lat="47.2009" lon="0.02443">
        <ele>90</ele>
        <time>2021-02-20T11:56:42+01:00</time>
      </trkpt>
      <trkpt lat="47.20078" lon="0.0246">
        <ele>89</ele>
        <time>2021-02-20T11:56:47+01:00</time>
      </trkpt>
      <trkpt lat="47.20053" lon="0.02541">
        <ele>88</ele>
        <time>2021-02-20T11:56:52+01:00</time>
      </trkpt>
      <trkpt lat="47.20023" lon="0.02637">
        <ele>84</ele>
        <time>2021-02-20T11:56:57+01:00</time>
      </trkpt>
      <trkpt lat="47.20017" lon="0.02652">
        <ele>83</ele>
        <time>2021-02-20T11:57:02+01:00</time>
      </trkpt>
      <trkpt lat="47.19951" lon="0.02726">
        <ele>82</ele>
        <time>2021-02-20T11:57:07+01:00</time>
      </trkpt>
      <trkpt lat="47.19881" lon="0.02793">
        <ele>82</ele>
        <time>2021-02-20T11:57:12+01:00</time>
      </trkpt>
      <trkpt lat="47.19875" lon="0.02818">
        <ele>82</ele>
        <time>2021-02-20T11:57:17+01:00</time>
      </trkpt>
      <trkpt lat="47.19881" lon="0.02857">
        <ele>82</ele>
        <time>2021-02-20T11:57:22+01:00</time>
      </trkpt>
      <trkpt lat="47.19894" lon="0.02955">
        <ele>82</ele>
        <time>2021-02-20T11:57:27+01:00</time>
      </trkpt>
      <trkpt lat="47.19902" lon="0.03014">
        <ele>80</ele>
        <time>2021-02-20T11:57:32+01:00</time>
      </trkpt>
      <trkpt lat="47.19902" lon="0.03079">
        <ele>79</ele>
        <time>2021-02-20T11:57:37+01:00</time>
      </trkpt>
      <trkpt lat="47.19912" lon="0.03148">
        <ele>79</ele>
        <time>2021-02-20T11:57:42+01:00</time>
      </trkpt>
      <trkpt lat="47.19932" lon="0.03215">
        <ele>78</ele>
        <time>2021-02-20T11:57:47+01:00</time>
      </trkpt>
      <trkpt lat="47.1997" lon="0.03309">
        <ele>75</ele>
        <time>2021-02-20T11:57:52+01:00</time>
      </trkpt>
      <trkpt lat="47.2002" lon="0.03403">
        <ele>71</ele>
        <time>2021-02-20T11:57:57+01:00</time>
      </trkpt>
      <trkpt lat="47.20073" lon="0.03496">
        <ele>67</ele>
        <time>2021-02-20T11:58:02+01:00</time>
      </trkpt>
      <trkpt lat="47.20096" lon="0.03537">
        <ele>69</ele>
        <time>2021-02-20T11:58:07+01:00</time>
      </trkpt>
      <trkpt lat="47.20122" lon="0.03589">
        <ele>70</ele>
        <time>2021-02-20T11:58:12+01:00</time>
      </trkpt>
      <trkpt lat="47.20148" lon="0.03644">
        <ele>71</ele>
        <time>2021-02-20T11:58:17+01:00</time>
      </trkpt>
      <trkpt lat="47.20166" lon="0.03685">
        <ele>71</ele>
        <time>2021-02-20T11:58:22+01:00</time>
      </trkpt>
      <trkpt lat="47.2019" lon="0.03737">
        <ele>72</ele>
        <time>2021-02-20T11:58:27+01:00</time>
      </trkpt>
      <trkpt lat="47.20221" lon="0.03815">
        <ele>72</ele>
        <time>2021-02-20T11:58:32+01:00</time>
      </trkpt>
      <trkpt lat="47.20236" lon="0.03866">
        <ele>71</ele>
        <time>2021-02-20T11:58:37+01:00</time>
      </trkpt>
      <trkpt lat="47.20275" lon="0.03947">
        <ele>69</ele>
        <time>2021-02-20T11:58:42+01:00</time>
      </trkpt>
      <trkpt lat="47.20318" lon="0.04025">
        <ele>64</ele>
        <time>2021-02-20T11:58:47+01:00</time>
      </trkpt>
      <trkpt lat="47.2038" lon="0.04165">
        <ele>63</ele>
        <time>2021-02-20T11:58:52+01:00</time>
      </trkpt>
      <trkpt lat="47.20384" lon="0.04168">
        <ele>63</ele>
        <time>2021-02-20T11:58:57+01:00</time>
      </trkpt>
      <trkpt lat="47.20433" lon="0.04098">
        <ele>59</ele>
        <time>2021-02-20T11:59:02+01:00</time>
      </trkpt>
      <trkpt lat="47.20445" lon="0.04088">
        <ele>59</ele>
        <time>2021-02-20T11:59:07+01:00</time>
      </trkpt>
      <trkpt lat="47.20459" lon="0.04075">
        <ele>60</ele>
        <time>2021-02-20T11:59:12+01:00</time>
      </trkpt>
      <trkpt lat="47.20487" lon="0.0405">
        <ele>62</ele>
        <time>2021-02-20T11:59:17+01:00</time>
      </trkpt>
      <trkpt lat="47.20509" lon="0.04003">
        <ele>65</ele>
        <time>2021-02-20T11:59:22+01:00</time>
      </trkpt>
      <trkpt lat="47.20522" lon="0.03961">
        <ele>69</ele>
        <time>2021-02-20T11:59:27+01:00</time>
      </trkpt>
      <trkpt lat="47.20534" lon="0.03927">
        <ele>71</ele>
        <time>2021-02-20T11:59:32+01:00</time>
      </trkpt>
      <trkpt lat="47.20542" lon="0.03908">
        <ele>72</ele>
        <time>2021-02-20T11:59:37+01:00</time>
      </trkpt>
      <trkpt lat="47.2055" lon="0.039">
        <ele>73</ele>
        <time>2021-02-20T11:59:42+01:00</time>
      </trkpt>
      <trkpt lat="47.20588" lon="0.03892">
        <ele>74</ele>
        <time>2021-02-20T11:59:47+01:00</time>
      </trkpt>
      <trkpt lat="47.2062" lon="0.0389">
        <ele>74</ele>
        <time>2021-02-20T11:59:52+01:00</time>
      </trkpt>
      <trkpt lat="47.2064" lon="0.03888">
        <ele>75</ele>
        <time>2021-02-20T11:59:57+01:00</time>
      </trkpt>
      <trkpt lat="47.20658" lon="0.0388">
        <ele>75</ele>
        <time>2021-02-20T12:00:02+01:00</time>
      </trkpt>
      <trkpt lat="47.20693" lon="0.03862">
        <ele>76</ele>
        <time>2021-02-20T12:00:07+01:00</time>
      </trkpt>
      <trkpt lat="47.20718" lon="0.03855">
        <ele>77</ele>
        <time>2021-02-20T12:00:12+01:00</time>
      </trkpt>
      <trkpt lat="47.20734" lon="0.03842">
        <ele>77</ele>
        <time>2021-02-20T12:00:17+01:00</time>
      </trkpt>
      <trkpt lat="47.20748" lon="0.03825">
        <ele>78</ele>
        <time>2021-02-20T12:00:22+01:00</time>
      </trkpt>
      <trkpt lat="47.20762" lon="0.03809">
        <ele>78</ele>
        <time>2021-02-20T12:00:27+01:00</time>
      </trkpt>
      <trkpt lat="47.2079" lon="0.03771">
        <ele>79</ele>
        <time>2021-02-20T12:00:32+01:00</time>
      </trkpt>
      <trkpt lat="47.20814" lon="0.03741">
        <ele>80</ele>
        <time>2021-02-20T12:00:37+01:00</time>
      </trkpt>
      <trkpt lat="47.20841" lon="0.03709">
        <ele>79</ele>
        <time>2021-02-20T12:00:42+01:00</time>
      </trkpt>
      <trkpt lat="47.20858" lon="0.03742">
        <ele>80</ele>
        <time>2021-02-20T12:00:47+01:00</time>
      </trkpt>
      <trkpt lat="47.20866" lon="0.03745">
        <ele>80</ele>
        <time>2021-02-20T12:00:52+01:00</time>
      </trkpt>
      <trkpt lat="47.20881" lon="0.03754">
        <ele>79</ele>
        <time>2021-02-20T12:00:57+01:00</time>
      </trkpt>
      <trkpt lat="47.20897" lon="0.03766">
        <ele>79</ele>
        <time>2021-02-20T12:01:02+01:00</time>
      </trkpt>
      <trkpt lat="47.20917" lon="0.03786">
        <ele>78</ele>
        <time>2021-02-20T12:01:07+01:00</time>
      </trkpt>
      <trkpt lat="47.20933" lon="0.03805">
        <ele>77</ele>
        <time>2021-02-20T12:01:12+01:00</time>
      </trkpt>
      <trkpt lat="47.2095" lon="0.03821">
        <ele>76</ele>
        <time>2021-02-20T12:01:17+01:00</time>
      </trkpt>
      <trkpt lat="47.20986" lon="0.03852">
        <ele>75</ele>
        <time>2021-02-20T12:01:22+01:00</time>
      </trkpt>
      <trkpt lat="47.21027" lon="0.03896">
        <ele>75</ele>
        <time>2021-02-20T12:01:27+01:00</time>
      </trkpt>
      <trkpt lat="47.21062" lon="0.03938">
        <ele>74</ele>
        <time>2021-02-20T12:01:32+01:00</time>
      </trkpt>
      <trkpt lat="47.2109" lon="0.03972">
        <ele>75</ele>
        <time>2021-02-20T12:01:37+01:00</time>
      </trkpt>
      <trkpt lat="47.21123" lon="0.04016">
        <ele>74</ele>
        <time>2021-02-20T12:01:42+01:00</time>
      </trkpt>
      <trkpt lat="47.2115" lon="0.04045">
        <ele>74</ele>
        <time>2021-02-20T12:01:47+01:00</time>
      </trkpt>
      <trkpt lat="47.21176" lon="0.04065">
        <ele>73</ele>
        <time>2021-02-20T12:01:52+01:00</time>
      </trkpt>
      <trkpt lat="47.21201" lon="0.04085">
        <ele>73</ele>
        <time>2021-02-20T12:01:57+01:00</time>
      </trkpt>
      <trkpt lat="47.21227" lon="0.04101">
        <ele>73</ele>
        <time>2021-02-20T12:02:02+01:00</time>
      </trkpt>
      <trkpt lat="47.21247" lon="0.04115">
        <ele>72</ele>
        <time>2021-02-20T12:02:07+01:00</time>
      </trkpt>
      <trkpt lat="47.21272" lon="0.04118">
        <ele>72</ele>
        <time>2021-02-20T12:02:12+01:00</time>
      </trkpt>
      <trkpt lat="47.21292" lon="0.04119">
        <ele>72</ele>
        <time>2021-02-20T12:02:17+01:00</time>
      </trkpt>
      <trkpt lat="47.2131" lon="0.04121">
        <ele>72</ele>
        <time>2021-02-20T12:02:22+01:00</time>
      </trkpt>
      <trkpt lat="47.21327" lon="0.04127">
        <ele>72</ele>
        <time>2021-02-20T12:02:27+01:00</time>
      </trkpt>
      <trkpt lat="47.21338" lon="0.04133">
        <ele>73</ele>
        <time>2021-02-20T12:02:32+01:00</time>
      </trkpt>
      <trkpt lat="47.21345" lon="0.04139">
        <ele>73</ele>
        <time>2021-02-20T12:02:37+01:00</time>
      </trkpt>
      <trkpt lat="47.21352" lon="0.04151">
        <ele>73</ele>
        <time>2021-02-20T12:02:42+01:00</time>
      </trkpt>
      <trkpt lat="47.21356" lon="0.0417">
        <ele>73</ele>
        <time>2021-02-20T12:02:47+01:00</time>
      </trkpt>
      <trkpt lat="47.21361" lon="0.04192">
        <ele>73</ele>
        <time>2021-02-20T12:02:52+01:00</time>
      </trkpt>
      <trkpt lat="47.21362" lon="0.04224">
        <ele>73</ele>
        <time>2021-02-20T12:02:57+01:00</time>
      </trkpt>
      <trkpt lat="47.21365" lon="0.0425">
        <ele>73</ele>
        <time>2021-02-20T12:03:02+01:00</time>
      </trkpt>
      <trkpt lat="47.21368" lon="0.0433">
        <ele>73</ele>
        <time>2021-02-20T12:03:07+01:00</time>
      </trkpt>
      <trkpt lat="47.21385" lon="0.04448">
        <ele>73</ele>
        <time>2021-02-20T12:03:12+01:00</time>
      </trkpt>
      <trkpt lat="47.21394" lon="0.0451">
        <ele>73</ele>
        <time>2021-02-20T12:03:17+01:00</time>
      </trkpt>
      <trkpt lat="47.21407" lon="0.04542">
        <ele>72</ele>
        <time>2021-02-20T12:03:22+01:00</time>
      </trkpt>
      <trkpt lat="47.21432" lon="0.04585">
        <ele>72</ele>
        <time>2021-02-20T12:03:27+01:00</time>
      </trkpt>
      <trkpt lat="47.21457" lon="0.04611">
        <ele>71</ele>
        <time>2021-02-20T12:03:32+01:00</time>
      </trkpt>
      <trkpt lat="47.21471" lon="0.04623">
        <ele>71</ele>
        <time>2021-02-20T12:03:37+01:00</time>
      </trkpt>
      <trkpt lat="47.21507" lon="0.04663">
        <ele>69</ele>
        <time>2021-02-20T12:03:42+01:00</time>
      </trkpt>
      <trkpt lat="47.21546" lon="0.04696">
        <ele>69</ele>
        <time>2021-02-20T12:03:47+01:00</time>
      </trkpt>
      <trkpt lat="47.21604" lon="0.04749">
        <ele>70</ele>
        <time>2021-02-20T12:03:52+01:00</time>
      </trkpt>
      <trkpt lat="47.21614" lon="0.04761">
        <ele>70</ele>
        <time>2021-02-20T12:03:57+01:00</time>
      </trkpt>
      <trkpt lat="47.21623" lon="0.04774">
        <ele>70</ele>
        <time>2021-02-20T12:04:02+01:00</time>
      </trkpt>
      <trkpt lat="47.21623" lon="0.048">
        <ele>69</ele>
        <time>2021-02-20T12:04:07+01:00</time>
      </trkpt>
      <trkpt lat="47.21619" lon="0.04839">
        <ele>68</ele>
        <time>2021-02-20T12:04:12+01:00</time>
      </trkpt>
      <trkpt lat="47.21615" lon="0.04884">
        <ele>66</ele>
        <time>2021-02-20T12:04:17+01:00</time>
      </trkpt>
      <trkpt lat="47.21609" lon="0.04918">
        <ele>65</ele>
        <time>2021-02-20T12:04:22+01:00</time>
      </trkpt>
      <trkpt lat="47.216" lon="0.04957">
        <ele>63</ele>
        <time>2021-02-20T12:04:27+01:00</time>
      </trkpt>
      <trkpt lat="47.21582" lon="0.05011">
        <ele>59</ele>
        <time>2021-02-20T12:04:32+01:00</time>
      </trkpt>
      <trkpt lat="47.21569" lon="0.05055">
        <ele>56</ele>
        <time>2021-02-20T12:04:37+01:00</time>
      </trkpt>
      <trkpt lat="47.21555" lon="0.05086">
        <ele>53</ele>
        <time>2021-02-20T12:04:42+01:00</time>
      </trkpt>
      <trkpt lat="47.21529" lon="0.05135">
        <ele>49</ele>
        <time>2021-02-20T12:04:47+01:00</time>
      </trkpt>
      <trkpt lat="47.21502" lon="0.05197">
        <ele>42</ele>
        <time>2021-02-20T12:04:52+01:00</time>
      </trkpt>
      <trkpt lat="47.21491" lon="0.05233">
        <ele>38</ele>
        <time>2021-02-20T12:04:57+01:00</time>
      </trkpt>
      <trkpt lat="47.21482" lon="0.05256">
        <ele>36</ele>
        <time>2021-02-20T12:05:02+01:00</time>
      </trkpt>
      <trkpt lat="47.21501" lon="0.05277">
        <ele>36</ele>
        <time>2021-02-20T12:05:07+01:00</time>
      </trkpt>
      <trkpt lat="47.21522" lon="0.05299">
        <ele>36</ele>
        <time>2021-02-20T12:05:12+01:00</time>
      </trkpt>
      <trkpt lat="47.21549" lon="0.05322">
        <ele>36</ele>
        <time>2021-02-20T12:05:17+01:00</time>
      </trkpt>
      <trkpt lat="47.21566" lon="0.05337">
        <ele>36</ele>
        <time>2021-02-20T12:05:22+01:00</time>
      </trkpt>
      <trkpt lat="47.21577" lon="0.05347">
        <ele>36</ele>
        <time>2021-02-20T12:05:27+01:00</time>
      </trkpt>
      <trkpt lat="47.21605" lon="0.05383">
        <ele>36</ele>
        <time>2021-02-20T12:05:32+01:00</time>
      </trkpt>
      <trkpt lat="47.21632" lon="0.05424">
        <ele>34</ele>
        <time>2021-02-20T12:05:37+01:00</time>
      </trkpt>
      <trkpt lat="47.21636" lon="0.05431">
        <ele>34</ele>
        <time>2021-02-20T12:05:42+01:00</time>
      </trkpt>
      <trkpt lat="47.21621" lon="0.05451">
        <ele>33</ele>
        <time>2021-02-20T12:05:47+01:00</time>
      </trkpt>
      <trkpt lat="47.21614" lon="0.05489">
        <ele>33</ele>
        <time>2021-02-20T12:05:52+01:00</time>
      </trkpt>
      <trkpt lat="47.21609" lon="0.05546">
        <ele>32</ele>
        <time>2021-02-20T12:05:57+01:00</time>
      </trkpt>
      <trkpt lat="47.2161" lon="0.05678">
        <ele>35</ele>
        <time>2021-02-20T12:06:02+01:00</time>
      </trkpt>
      <trkpt lat="47.21614" lon="0.05745">
        <ele>38</ele>
        <time>2021-02-20T12:06:07+01:00</time>
      </trkpt>
      <trkpt lat="47.21601" lon="0.05746">
        <ele>40</ele>
        <time>2021-02-20T12:06:12+01:00</time>
      </trkpt>
      <trkpt lat="47.21591" lon="0.05743">
        <ele>41</ele>
        <time>2021-02-20T12:06:17+01:00</time>
      </trkpt>
      <trkpt lat="47.21581" lon="0.05744">
        <ele>43</ele>
        <time>2021-02-20T12:06:22+01:00</time>
      </trkpt>
      <trkpt lat="47.2157" lon="0.05749">
        <ele>45</ele>
        <time>2021-02-20T12:06:27+01:00</time>
      </trkpt>
      <trkpt lat="47.21532" lon="0.05763">
        <ele>50</ele>
        <time>2021-02-20T12:06:32+01:00</time>
      </trkpt>
      <trkpt lat="47.21506" lon="0.0574">
        <ele>51</ele>
        <time>2021-02-20T12:06:37+01:00</time>
      </trkpt>
      <trkpt lat="47.21489" lon="0.05729">
        <ele>52</ele>
        <time>2021-02-20T12:06:42+01:00</time>
      </trkpt>
      <trkpt lat="47.21486" lon="0.05728">
        <ele>52</ele>
        <time>2021-02-20T12:06:47+01:00</time>
      </trkpt>
      <trkpt lat="47.21479" lon="0.05727">
        <ele>53</ele>
        <time>2021-02-20T12:06:52+01:00</time>
      </trkpt>
      <trkpt lat="47.21474" lon="0.05725">
        <ele>53</ele>
        <time>2021-02-20T12:06:57+01:00</time>
      </trkpt>
      <trkpt lat="47.21465" lon="0.05718">
        <ele>53</ele>
        <time>2021-02-20T12:07:02+01:00</time>
      </trkpt>
      <trkpt lat="47.21457" lon="0.05709">
        <ele>53</ele>
        <time>2021-02-20T12:07:07+01:00</time>
      </trkpt>
      <trkpt lat="47.21442" lon="0.05682">
        <ele>53</ele>
        <time>2021-02-20T12:07:12+01:00</time>
      </trkpt>
      <trkpt lat="47.2142" lon="0.05646">
        <ele>53</ele>
        <time>2021-02-20T12:07:17+01:00</time>
      </trkpt>
      <trkpt lat="47.21395" lon="0.05622">
        <ele>54</ele>
        <time>2021-02-20T12:07:22+01:00</time>
      </trkpt>
      <trkpt lat="47.21369" lon="0.05605">
        <ele>56</ele>
        <time>2021-02-20T12:07:27+01:00</time>
      </trkpt>
      <trkpt lat="47.21354" lon="0.05595">
        <ele>57</ele>
        <time>2021-02-20T12:07:32+01:00</time>
      </trkpt>
      <trkpt lat="47.21341" lon="0.05589">
        <ele>58</ele>
        <time>2021-02-20T12:07:37+01:00</time>
      </trkpt>
      <trkpt lat="47.21335" lon="0.05594">
        <ele>60</ele>
        <time>2021-02-20T12:07:42+01:00</time>
      </trkpt>
      <trkpt lat="47.21328" lon="0.05587">
        <ele>60</ele>
        <time>2021-02-20T12:07:47+01:00</time>
      </trkpt>
      <trkpt lat="47.21308" lon="0.05557">
        <ele>58</ele>
        <time>2021-02-20T12:07:52+01:00</time>
      </trkpt>
      <trkpt lat="47.21288" lon="0.05541">
        <ele>57</ele>
        <time>2021-02-20T12:07:57+01:00</time>
      </trkpt>
      <trkpt lat="47.21263" lon="0.05532">
        <ele>58</ele>
        <time>2021-02-20T12:08:02+01:00</time>
      </trkpt>
      <trkpt lat="47.21245" lon="0.05528">
        <ele>58</ele>
        <time>2021-02-20T12:08:07+01:00</time>
      </trkpt>
      <trkpt lat="47.21236" lon="0.05526">
        <ele>59</ele>
        <time>2021-02-20T12:08:12+01:00</time>
      </trkpt>
      <trkpt lat="47.2123" lon="0.05519">
        <ele>59</ele>
        <time>2021-02-20T12:08:17+01:00</time>
      </trkpt>
      <trkpt lat="47.21221" lon="0.05492">
        <ele>57</ele>
        <time>2021-02-20T12:08:22+01:00</time>
      </trkpt>
      <trkpt lat="47.21213" lon="0.05499">
        <ele>58</ele>
        <time>2021-02-20T12:08:27+01:00</time>
      </trkpt>
      <trkpt lat="47.21206" lon="0.05508">
        <ele>60</ele>
        <time>2021-02-20T12:08:32+01:00</time>
      </trkpt>
      <trkpt lat="47.21198" lon="0.05527">
        <ele>62</ele>
        <time>2021-02-20T12:08:37+01:00</time>
      </trkpt>
      <trkpt lat="47.21194" lon="0.05542">
        <ele>64</ele>
        <time>2021-02-20T12:08:42+01:00</time>
      </trkpt>
      <trkpt lat="47.21144" lon="0.05643">
        <ele>73</ele>
        <time>2021-02-20T12:08:47+01:00</time>
      </trkpt>
      <trkpt lat="47.21126" lon="0.05672">
        <ele>76</ele>
        <time>2021-02-20T12:08:52+01:00</time>
      </trkpt>
      <trkpt lat="47.21097" lon="0.05713">
        <ele>78</ele>
        <time>2021-02-20T12:08:57+01:00</time>
      </trkpt>
      <trkpt lat="47.21126" lon="0.05735">
        <ele>78</ele>
        <time>2021-02-20T12:09:02+01:00</time>
      </trkpt>
      <trkpt lat="47.21137" lon="0.05745">
        <ele>78</ele>
        <time>2021-02-20T12:09:07+01:00</time>
      </trkpt>
      <trkpt lat="47.2116" lon="0.05758">
        <ele>77</ele>
        <time>2021-02-20T12:09:12+01:00</time>
      </trkpt>
      <trkpt lat="47.21179" lon="0.05771">
        <ele>77</ele>
        <time>2021-02-20T12:09:17+01:00</time>
      </trkpt>
      <trkpt lat="47.212" lon="0.05784">
        <ele>77</ele>
        <time>2021-02-20T12:09:22+01:00</time>
      </trkpt>
      <trkpt lat="47.2122" lon="0.05806">
        <ele>77</ele>
        <time>2021-02-20T12:09:27+01:00</time>
      </trkpt>
      <trkpt lat="47.21248" lon="0.05843">
        <ele>77</ele>
        <time>2021-02-20T12:09:32+01:00</time>
      </trkpt>
      <trkpt lat="47.21271" lon="0.05872">
        <ele>76</ele>
        <time>2021-02-20T12:09:37+01:00</time>
      </trkpt>
      <trkpt lat="47.2136" lon="0.05952">
        <ele>76</ele>
        <time>2021-02-20T12:09:42+01:00</time>
      </trkpt>
      <trkpt lat="47.21387" lon="0.05978">
        <ele>75</ele>
        <time>2021-02-20T12:09:47+01:00</time>
      </trkpt>
      <trkpt lat="47.21411" lon="0.06007">
        <ele>75</ele>
        <time>2021-02-20T12:09:52+01:00</time>
      </trkpt>
      <trkpt lat="47.214" lon="0.0604">
        <ele>76</ele>
        <time>2021-02-20T12:09:57+01:00</time>
      </trkpt>
      <trkpt lat="47.21384" lon="0.06091">
        <ele>77</ele>
        <time>2021-02-20T12:10:02+01:00</time>
      </trkpt>
      <trkpt lat="47.21369" lon="0.06154">
        <ele>76</ele>
        <time>2021-02-20T12:10:07+01:00</time>
      </trkpt>
      <trkpt lat="47.21351" lon="0.06215">
        <ele>75</ele>
        <time>2021-02-20T12:10:12+01:00</time>
      </trkpt>
      <trkpt lat="47.21331" lon="0.06296">
        <ele>73</ele>
        <time>2021-02-20T12:10:17+01:00</time>
      </trkpt>
      <trkpt lat="47.21322" lon="0.06338">
        <ele>71</ele>
        <time>2021-02-20T12:10:22+01:00</time>
      </trkpt>
      <trkpt lat="47.21313" lon="0.06378">
        <ele>69</ele>
        <time>2021-02-20T12:10:27+01:00</time>
      </trkpt>
      <trkpt lat="47.2131" lon="0.06408">
        <ele>68</ele>
        <time>2021-02-20T12:10:32+01:00</time>
      </trkpt>
      <trkpt lat="47.2131" lon="0.0642">
        <ele>67</ele>
        <time>2021-02-20T12:10:37+01:00</time>
      </trkpt>
      <trkpt lat="47.21309" lon="0.06425">
        <ele>66</ele>
        <time>2021-02-20T12:10:42+01:00</time>
      </trkpt>
      <trkpt lat="47.21314" lon="0.06446">
        <ele>63</ele>
        <time>2021-02-20T12:10:47+01:00</time>
      </trkpt>
      <trkpt lat="47.21321" lon="0.06456">
        <ele>62</ele>
        <time>2021-02-20T12:10:52+01:00</time>
      </trkpt>
      <trkpt lat="47.21336" lon="0.06469">
        <ele>59</ele>
        <time>2021-02-20T12:10:57+01:00</time>
      </trkpt>
      <trkpt lat="47.21364" lon="0.0648">
        <ele>55</ele>
        <time>2021-02-20T12:11:02+01:00</time>
      </trkpt>
      <trkpt lat="47.21381" lon="0.06482">
        <ele>54</ele>
        <time>2021-02-20T12:11:07+01:00</time>
      </trkpt>
      <trkpt lat="47.2139" lon="0.06483">
        <ele>53</ele>
        <time>2021-02-20T12:11:12+01:00</time>
      </trkpt>
      <trkpt lat="47.21416" lon="0.06471">
        <ele>52</ele>
        <time>2021-02-20T12:11:17+01:00</time>
      </trkpt>
      <trkpt lat="47.21428" lon="0.06463">
        <ele>51</ele>
        <time>2021-02-20T12:11:22+01:00</time>
      </trkpt>
      <trkpt lat="47.21426" lon="0.06472">
        <ele>50</ele>
        <time>2021-02-20T12:11:27+01:00</time>
      </trkpt>
      <trkpt lat="47.21427" lon="0.06476">
        <ele>50</ele>
        <time>2021-02-20T12:11:32+01:00</time>
      </trkpt>
      <trkpt lat="47.21432" lon="0.0648">
        <ele>48</ele>
        <time>2021-02-20T12:11:37+01:00</time>
      </trkpt>
      <trkpt lat="47.21433" lon="0.06483">
        <ele>48</ele>
        <time>2021-02-20T12:11:42+01:00</time>
      </trkpt>
      <trkpt lat="47.21431" lon="0.06491">
        <ele>47</ele>
        <time>2021-02-20T12:11:47+01:00</time>
      </trkpt>
      <trkpt lat="47.21424" lon="0.06516">
        <ele>45</ele>
        <time>2021-02-20T12:11:52+01:00</time>
      </trkpt>
      <trkpt lat="47.21412" lon="0.06558">
        <ele>40</ele>
        <time>2021-02-20T12:11:57+01:00</time>
      </trkpt>
      <trkpt lat="47.21418" lon="0.06561">
        <ele>39</ele>
        <time>2021-02-20T12:12:02+01:00</time>
      </trkpt>
      <trkpt lat="47.21438" lon="0.06573">
        <ele>34</ele>
        <time>2021-02-20T12:12:07+01:00</time>
      </trkpt>
      <trkpt lat="47.21475" lon="0.0659">
        <ele>25</ele>
        <time>2021-02-20T12:12:12+01:00</time>
      </trkpt>
      <trkpt lat="47.21508" lon="0.06494">
        <ele>33</ele>
        <time>2021-02-20T12:12:17+01:00</time>
      </trkpt>
      <trkpt lat="47.21587" lon="0.06251">
        <ele>38</ele>
        <time>2021-02-20T12:12:22+01:00</time>
      </trkpt>
      <trkpt lat="47.21609" lon="0.06163">
        <ele>35</ele>
        <time>2021-02-20T12:12:27+01:00</time>
      </trkpt>
      <trkpt lat="47.21625" lon="0.06075">
        <ele>34</ele>
        <time>2021-02-20T12:12:32+01:00</time>
      </trkpt>
      <trkpt lat="47.21634" lon="0.06058">
        <ele>33</ele>
        <time>2021-02-20T12:12:37+01:00</time>
      </trkpt>
      <trkpt lat="47.21639" lon="0.06031">
        <ele>32</ele>
        <time>2021-02-20T12:12:42+01:00</time>
      </trkpt>
      <trkpt lat="47.21663" lon="0.05886">
        <ele>30</ele>
        <time>2021-02-20T12:12:47+01:00</time>
      </trkpt>
      <trkpt lat="47.2168" lon="0.05735">
        <ele>31</ele>
        <time>2021-02-20T12:12:52+01:00</time>
      </trkpt>
      <trkpt lat="47.21693" lon="0.05711">
        <ele>30</ele>
        <time>2021-02-20T12:12:57+01:00</time>
      </trkpt>
      <trkpt lat="47.21719" lon="0.05662">
        <ele>29</ele>
        <time>2021-02-20T12:13:02+01:00</time>
      </trkpt>
      <trkpt lat="47.21732" lon="0.05639">
        <ele>30</ele>
        <time>2021-02-20T12:13:07+01:00</time>
      </trkpt>
      <trkpt lat="47.21743" lon="0.05606">
        <ele>32</ele>
        <time>2021-02-20T12:13:12+01:00</time>
      </trkpt>
      <trkpt lat="47.21748" lon="0.05564">
        <ele>33</ele>
        <time>2021-02-20T12:13:17+01:00</time>
      </trkpt>
      <trkpt lat="47.21721" lon="0.0555">
        <ele>33</ele>
        <time>2021-02-20T12:13:22+01:00</time>
      </trkpt>
    </trkseg>
  </trk>
</gpx>